Ana Sayfa
METAR-TAF:

METAR-TAF

Havaalanları :

DeKalb Taylor Municipal Airport

DeKalb, Illinois, Amerika Birleşik Devletleri

Enlem: 41-55-55N, Boylam: 088-42-30W, yükseklik: 279 m

Güncel hava durumu gözlemi

Rapor saat 00:35 UTC de 24 dakika önce yapıldı.
Rüzgar doğu/kuzeydoğudan 9 kt
Sıcaklık 18°C
Nem 73%
Basınç 1023 hPa
Görüş mesafesi: 16.1 km
Açık gökyüzü

METAR: KDKB 240035Z AUTO 07009KT 10SM CLR 18/13 A3021 RMK AO2 T01830130

Saat: 19:59 (00:59 UTC)


TAF: eksik

4.000'den fazla havaalanı için hava durumu gözlemleri ve tahminleri (METAR ve TAF raporları).

Kullanılabilir istasyonlar harita üzerinde sarı ve kırmızı noktalarla gösterilir.

İstasyonun adını görmek için fareyi noktanın üzerinde gezdirin.

Sonrasında hava gözlem ve tahminlerini görmek için tıklayın.

Haritayı değiştirmek için: yaklaştırmak için siyah artı işaretli yeşil düğmeye ve uzaklaştırmak için de eksi işaretli düğmeye hızla tıklayın; bitişik haritalar için yeşil okları kullanın.


METAR-TAF: